Terminal Aerodrome Forecast
Issued by NWS Melbourne, FL

Home | Current Version | Previous Version | Text Only | Print | Product List | Glossary On
Versions: 1 2 3 4 5 6 7 8 9 10 11 12 13 14 15 16 17 18 19
158
FTUS42 KMLB 262339
TAFDAB
TAF
KDAB 262339Z 2700/2724 VRB04KT P6SM FEW030 BKN150
      TEMPO 2700/2701 4SM -RA BR BKN080 OVC150
     FM270100 00000KT P6SM SCT050 SCT180 OVC200
     FM271400 26004KT P6SM SCT025 BKN250
     FM271700 06008KT P6SM VCTS BKN035CB BKN060
      TEMPO 2717/2720 3SM TSRA BKN025CB=

USA.gov is the U.S. government's official web portal to all federal, state and local government web resources and services.